Time;durP1;ratioP1;P1;durP2;ratioP2;P2;SDS_P1;SDS_P2;PMS_P1;PMS_P2;Temp;Humidity;BMP_temperature;BMP_pressure;BME280_temperature;BME280_humidity;BME280_pressure;Samples;Min_cycle;Max_cycle;Signal;HPM_P1;HPM_P2
2022/01/04 00:00:40;;;;;;;50.53;8.27;;;;;;;10.38;67.10;100153.47;5184203;28;20453;-43
2022/01/04 00:03:12;;;;;;;43.20;7.68;;;;;;;10.41;67.16;100152.31;5191047;28;20415;-42
2022/01/04 00:05:46;;;;;;;41.92;8.07;;;;;;;10.42;67.18;100144.22;5194031;28;20892;-42
2022/01/04 00:08:19;;;;;;;38.42;7.85;;;;;;;10.44;67.12;100142.25;5184602;28;20415;-44
2022/01/04 00:10:54;;;;;;;44.38;7.78;;;;;;;10.43;67.20;100135.28;5187379;28;20431;-43
2022/01/04 00:13:27;;;;;;;39.55;7.57;;;;;;;10.44;67.40;100131.69;5184141;28;20436;-43
2022/01/04 00:16:00;;;;;;;47.63;8.48;;;;;;;10.45;67.34;100133.34;5186969;28;20436;-43
2022/01/04 00:18:32;;;;;;;47.40;8.25;;;;;;;10.47;67.32;100133.19;5192653;28;20490;-44
2022/01/04 00:21:06;;;;;;;45.92;7.55;;;;;;;10.48;67.40;100122.44;5188183;28;20439;-41
2022/01/04 00:23:38;;;;;;;59.40;9.65;;;;;;;10.52;67.28;100115.81;5191570;28;20415;-43
2022/01/04 00:26:11;;;;;;;29.98;7.10;;;;;;;10.54;67.40;100111.22;5188153;28;20425;-43
2022/01/04 00:28:43;;;;;;;42.80;8.35;;;;;;;10.57;67.33;100095.03;5198536;28;20813;-43
2022/01/04 00:31:15;;;;;;;40.65;8.18;;;;;;;10.61;67.42;100091.06;5187480;28;20431;-43
2022/01/04 00:33:48;;;;;;;49.70;8.20;;;;;;;10.64;67.28;100073.25;5191321;28;20437;-42
2022/01/04 00:36:21;;;;;;;38.03;8.00;;;;;;;10.65;67.38;100066.94;5179275;28;20512;-42
2022/01/04 00:38:54;;;;;;;45.40;8.07;;;;;;;10.67;67.24;100073.72;5186246;28;20436;-43
2022/01/04 00:41:26;;;;;;;37.38;6.80;;;;;;;10.69;67.42;100073.56;5187043;28;20414;-44
2022/01/04 00:43:58;;;;;;;37.10;8.00;;;;;;;10.68;67.48;100066.63;5182585;28;20403;-43
2022/01/04 00:46:31;;;;;;;44.65;7.75;;;;;;;10.59;67.54;100050.81;5179222;28;20721;-44
2022/01/04 00:49:12;;;;;;;31.45;7.22;;;;;;;10.69;67.42;100055.06;5189615;28;20503;-43
2022/01/04 00:51:50;;;;;;;45.05;8.07;;;;;;;10.70;67.59;100056.72;5186973;28;20789;-43
2022/01/04 00:54:22;;;;;;;43.25;7.93;;;;;;;10.60;67.53;100035.78;5194603;28;20940;-44
2022/01/04 00:56:55;;;;;;;38.03;7.90;;;;;;;10.72;67.58;100054.75;5194110;28;20413;-42
2022/01/04 00:59:27;;;;;;;33.85;7.93;;;;;;;10.77;67.57;100055.03;5194066;28;20421;-43
2022/01/04 01:02:00;;;;;;;33.90;7.05;;;;;;;10.77;67.48;100047.13;5185998;28;20895;-45
2022/01/04 01:04:32;;;;;;;42.00;6.93;;;;;;;10.79;67.61;100045.13;5185322;28;20415;-44
2022/01/04 01:07:06;;;;;;;38.85;7.25;;;;;;;10.82;67.51;100044.78;5193330;28;20419;-44
2022/01/04 01:09:48;;;;;;;31.80;7.43;;;;;;;10.83;67.41;100041.16;5186413;28;20796;-43
2022/01/04 01:12:20;;;;;;;43.67;7.57;;;;;;;10.82;67.52;100035.03;5184093;28;20421;-43
2022/01/04 01:14:53;;;;;;;35.83;8.20;;;;;;;10.82;67.60;100034.22;5193434;28;20431;-42
2022/01/04 01:17:25;;;;;;;39.25;7.25;;;;;;;10.85;67.52;100033.88;5181763;28;20399;-42
2022/01/04 01:19:57;;;;;;;39.67;7.95;;;;;;;10.83;67.54;100018.19;5185477;28;20425;-42
2022/01/04 01:22:31;;;;;;;41.85;7.90;;;;;;;10.88;67.45;100024.81;5195630;28;20871;-42
2022/01/04 01:25:05;;;;;;;41.05;9.43;;;;;;;10.87;67.59;100021.34;5178164;28;20791;-47
2022/01/04 01:27:37;;;;;;;34.13;7.88;;;;;;;10.89;67.59;100027.25;5189105;28;20502;-44
2022/01/04 01:30:11;;;;;;;47.13;8.52;;;;;;;10.83;67.34;100009.44;5186494;28;20790;-43
2022/01/04 01:32:44;;;;;;;36.88;7.18;;;;;;;10.84;67.61;100008.47;5188444;28;20412;-45
2022/01/04 01:35:17;;;;;;;35.72;7.30;;;;;;;10.94;67.50;100017.00;5184639;28;20412;-43
2022/01/04 01:37:50;;;;;;;35.17;8.43;;;;;;;10.85;67.53;100007.47;5186968;28;20425;-44
2022/01/04 01:40:23;;;;;;;39.17;7.35;;;;;;;10.94;67.42;100017.00;5184671;28;20432;-43
2022/01/04 01:42:55;;;;;;;45.25;8.55;;;;;;;10.92;67.42;100007.59;5180983;28;20547;-43
2022/01/04 01:45:28;;;;;;;41.58;8.95;;;;;;;10.92;67.58;100005.78;5187216;28;20425;-45
2022/01/04 01:48:01;;;;;;;37.47;8.38;;;;;;;10.89;67.48;99992.91;5184058;28;20457;-45
2022/01/04 01:50:33;;;;;;;33.05;7.35;;;;;;;10.98;67.47;99986.59;5185804;28;20427;-42
2022/01/04 01:53:07;;;;;;;40.30;8.77;;;;;;;11.00;67.45;99984.63;5189158;28;21398;-45
2022/01/04 01:55:39;;;;;;;33.75;8.77;;;;;;;11.03;67.33;99984.25;5180344;28;20439;-43
2022/01/04 01:58:12;;;;;;;39.90;8.73;;;;;;;11.01;67.43;99980.97;5184099;28;20403;-42
2022/01/04 02:00:44;;;;;;;36.45;8.73;;;;;;;10.99;67.56;99977.66;5184603;28;20419;-42
2022/01/04 02:03:16;;;;;;;33.70;7.38;;;;;;;10.98;67.51;99968.09;5188937;28;20426;-42
2022/01/04 02:05:49;;;;;;;40.42;8.65;;;;;;;11.00;67.50;99962.66;5189535;28;20512;-42
2022/01/04 02:08:23;;;;;;;34.90;7.82;;;;;;;11.01;67.40;99959.81;5186389;28;20793;-43
2022/01/04 02:10:57;;;;;;;33.97;8.50;;;;;;;11.02;67.50;99964.09;5185479;28;20412;-44
2022/01/04 02:13:30;;;;;;;32.10;8.68;;;;;;;11.02;67.29;99956.19;5193408;28;20516;-42
2022/01/04 02:16:03;;;;;;;32.47;7.82;;;;;;;11.01;67.42;99951.91;5179136;28;20405;-44
2022/01/04 02:18:35;;;;;;;33.70;7.18;;;;;;;11.01;67.40;99938.69;5181355;28;20426;-46
2022/01/04 02:21:09;;;;;;;38.42;8.13;;;;;;;11.01;67.34;99943.97;5186014;28;20771;-42
2022/01/04 02:23:41;;;;;;;40.00;8.40;;;;;;;10.97;67.41;99937.41;5192469;28;20428;-42
2022/01/04 02:26:14;;;;;;;42.45;8.50;;;;;;;10.94;67.48;99932.47;5186437;28;20413;-46
2022/01/04 02:28:48;;;;;;;31.58;8.50;;;;;;;10.92;67.55;99925.72;5189399;28;20431;-43
2022/01/04 02:31:21;;;;;;;34.17;8.88;;;;;;;10.86;67.51;99916.66;5178970;28;20435;-42
2022/01/04 02:33:53;;;;;;;34.10;8.32;;;;;;;10.73;67.48;99898.75;5187642;28;20463;-45
2022/01/04 02:36:27;;;;;;;32.55;7.93;;;;;;;10.89;67.57;99918.94;5185063;28;20834;-43
2022/01/04 02:38:59;;;;;;;38.33;8.10;;;;;;;10.90;67.55;99914.47;5192783;28;20519;-43
2022/01/04 02:41:31;;;;;;;36.75;8.80;;;;;;;10.87;67.54;99915.69;5197662;28;20413;-44
2022/01/04 02:44:04;;;;;;;43.42;8.30;;;;;;;10.63;67.66;99881.47;5190905;28;20418;-44
2022/01/04 02:46:37;;;;;;;29.38;6.97;;;;;;;10.79;67.71;99908.59;5175315;28;20422;-44
2022/01/04 02:49:09;;;;;;;41.70;8.23;;;;;;;10.76;67.73;99902.84;5194589;28;20433;-42
2022/01/04 02:51:43;;;;;;;36.00;8.60;;;;;;;10.76;67.57;99897.56;5197289;28;20915;-44
2022/01/04 02:54:15;;;;;;;30.17;8.00;;;;;;;10.76;67.57;99889.66;5183581;28;20519;-43
2022/01/04 02:56:47;;;;;;;31.27;7.65;;;;;;;10.75;67.35;99888.84;5188225;28;20435;-44
2022/01/04 02:59:20;;;;;;;29.97;7.07;;;;;;;10.73;67.54;99887.34;5182589;28;20429;-44
2022/01/04 03:01:52;;;;;;;35.03;8.03;;;;;;;10.69;67.57;99892.16;5178048;28;20427;-45
2022/01/04 03:04:24;;;;;;;36.28;8.35;;;;;;;10.70;67.62;99882.41;5182855;28;20434;-47
2022/01/04 03:06:58;;;;;;;34.60;8.13;;;;;;;10.68;67.58;99879.94;5178552;28;20876;-43
2022/01/04 03:09:30;;;;;;;31.52;7.68;;;;;;;10.69;67.57;99876.31;5180522;28;20437;-43
2022/01/04 03:12:03;;;;;;;29.90;7.25;;;;;;;10.69;67.53;99870.22;5187480;28;20767;-43
2022/01/04 03:14:35;;;;;;;32.43;7.40;;;;;;;10.71;67.55;99873.50;5191783;28;20407;-44
2022/01/04 03:17:08;;;;;;;35.03;8.70;;;;;;;10.72;67.47;99867.25;5193706;28;20910;-43
2022/01/04 03:19:40;;;;;;;36.97;7.55;;;;;;;10.76;67.36;99860.59;5193149;28;20417;-43
2022/01/04 03:22:14;;;;;;;29.83;7.20;;;;;;;10.76;67.30;99860.59;5190743;28;20413;-43
2022/01/04 03:24:46;;;;;;;45.33;9.02;;;;;;;10.75;67.37;99856.31;5188981;28;20419;-44
2022/01/04 03:27:20;;;;;;;37.20;8.95;;;;;;;10.43;67.44;99799.25;5190630;28;20421;-41
2022/01/04 03:29:52;;;;;;;32.80;8.40;;;;;;;10.68;67.37;99826.31;5199262;28;20433;-44
2022/01/04 03:32:25;;;;;;;37.45;7.22;;;;;;;10.77;67.49;99830.53;5189954;28;20509;-44
2022/01/04 03:34:57;;;;;;;34.72;8.93;;;;;;;10.79;67.37;99823.28;5188663;28;20439;-44
2022/01/04 03:37:30;;;;;;;42.42;7.95;;;;;;;10.74;67.32;99812.41;5195639;28;20415;-44
2022/01/04 03:40:04;;;;;;;35.75;8.25;;;;;;;10.35;67.41;99758.72;5182077;28;20423;-45
2022/01/04 03:42:36;;;;;;;32.13;7.90;;;;;;;10.75;67.32;99806.97;5193400;28;20414;-41
2022/01/04 03:45:09;;;;;;;36.05;8.35;;;;;;;10.76;67.40;99808.59;5181350;28;20500;-44
2022/01/04 03:47:42;;;;;;;21.20;6.38;;;;;;;10.74;67.25;99799.19;5193015;28;20469;-44
2022/01/04 03:50:14;;;;;;;38.95;8.20;;;;;;;10.79;67.40;99799.50;5199495;28;20926;-44
2022/01/04 03:52:48;;;;;;;35.80;7.47;;;;;;;10.79;67.35;99796.88;5183048;28;20431;-45
2022/01/04 03:55:20;;;;;;;40.47;8.07;;;;;;;10.79;67.35;99791.59;5186765;28;20865;-44
2022/01/04 03:57:52;;;;;;;45.53;8.65;;;;;;;10.75;67.38;99774.47;5190194;28;20818;-43
2022/01/04 04:00:25;;;;;;;28.60;7.50;;;;;;;10.76;67.43;99762.88;5183556;28;20431;-43
2022/01/04 04:02:57;;;;;;;36.65;8.45;;;;;;;10.73;67.46;99763.25;5192201;28;20422;-42
2022/01/04 04:05:29;;;;;;;36.72;7.47;;;;;;;10.69;67.51;99746.94;5185157;28;20411;-45
2022/01/04 04:08:03;;;;;;;35.13;8.88;;;;;;;10.71;67.27;99758.13;5205413;28;20398;-44
2022/01/04 04:10:36;;;;;;;36.22;8.40;;;;;;;10.73;67.48;99757.97;5194275;28;20402;-46
2022/01/04 04:13:08;;;;;;;34.55;8.20;;;;;;;10.78;67.33;99758.25;5198868;28;20414;-43
2022/01/04 04:15:41;;;;;;;30.98;7.07;;;;;;;10.80;67.40;99751.78;5190034;28;20430;-43
2022/01/04 04:18:16;;;;;;;29.08;6.93;;;;;;;10.81;67.38;99763.19;5185237;28;20455;-43
2022/01/04 04:20:49;;;;;;;39.03;6.75;;;;;;;10.81;67.30;99774.56;5198745;28;20433;-43
2022/01/04 04:23:22;;;;;;;39.30;8.23;;;;;;;10.77;67.42;99788.28;5195568;28;20431;-43
2022/01/04 04:25:55;;;;;;;38.42;7.25;;;;;;;10.80;67.43;99764.16;5183191;28;20774;-45
2022/01/04 04:28:27;;;;;;;32.80;7.00;;;;;;;10.78;67.39;99764.34;5193561;28;20404;-43
2022/01/04 04:31:01;;;;;;;31.77;7.10;;;;;;;10.76;67.45;99747.03;5194936;28;20733;-42
2022/01/04 04:33:35;;;;;;;32.40;7.75;;;;;;;10.69;67.45;99748.75;5185951;28;20506;-42
2022/01/04 04:36:08;;;;;;;32.53;7.68;;;;;;;10.73;67.58;99747.41;5174511;28;20427;-43
2022/01/04 04:38:41;;;;;;;38.72;8.93;;;;;;;10.71;67.75;99746.75;5186894;28;20413;-43
2022/01/04 04:41:14;;;;;;;42.38;8.18;;;;;;;10.73;67.54;99742.94;5183964;28;20887;-43
2022/01/04 04:43:46;;;;;;;29.08;8.35;;;;;;;10.69;67.52;99732.91;5195759;28;20921;-44
2022/01/04 04:46:18;;;;;;;41.03;9.95;;;;;;;10.67;67.60;99725.16;5185983;28;20424;-43
2022/01/04 04:48:51;;;;;;;32.20;8.85;;;;;;;10.66;67.58;99714.78;5195628;28;20427;-46
2022/01/04 04:51:23;;;;;;;43.37;10.17;;;;;;;10.69;67.55;99723.16;5190859;28;20563;-42
2022/01/04 04:53:57;;;;;;;38.38;10.50;;;;;;;10.70;67.60;99718.69;5191351;28;20408;-42
2022/01/04 04:56:29;;;;;;;37.85;10.75;;;;;;;10.74;67.59;99719.97;5187822;28;20788;-42
2022/01/04 04:59:01;;;;;;;34.72;10.02;;;;;;;10.69;67.56;99698.59;5191601;28;20403;-43
2022/01/04 05:01:34;;;;;;;36.05;10.32;;;;;;;10.79;67.44;99707.88;5190880;28;20407;-44
2022/01/04 05:04:06;;;;;;;35.60;10.50;;;;;;;10.80;67.50;99730.66;5178052;28;20413;-46
2022/01/04 05:06:38;;;;;;;39.72;10.57;;;;;;;10.80;67.44;99714.81;5199579;28;20405;-43
2022/01/04 05:09:12;;;;;;;35.08;10.50;;;;;;;10.81;67.45;99720.94;5183848;28;21213;-44
2022/01/04 05:11:44;;;;;;;34.58;8.75;;;;;;;10.82;67.44;99701.44;5178921;28;20417;-42
2022/01/04 05:14:17;;;;;;;36.67;9.98;;;;;;;10.79;67.60;99680.66;5195167;28;20417;-42
2022/01/04 05:16:50;;;;;;;28.40;8.55;;;;;;;10.78;67.52;99690.41;5191171;28;20421;-42
2022/01/04 05:19:22;;;;;;;34.13;8.20;;;;;;;10.78;67.52;99693.03;5183980;28;20437;-42
2022/01/04 05:21:54;;;;;;;33.00;9.65;;;;;;;10.78;67.58;99684.31;5188195;28;20421;-41
2022/01/04 05:24:28;;;;;;;30.58;8.38;;;;;;;10.77;67.60;99683.47;5185098;28;20409;-44
2022/01/04 05:27:00;;;;;;;31.55;8.23;;;;;;;10.76;67.54;99675.72;5190978;28;20909;-43
2022/01/04 05:29:33;;;;;;;32.00;8.50;;;;;;;10.74;67.65;99667.16;5195507;28;20914;-45
2022/01/04 05:32:06;;;;;;;31.00;7.30;;;;;;;10.46;67.65;99641.34;5202325;28;20415;-41
2022/01/04 05:34:39;;;;;;;30.08;7.18;;;;;;;10.69;67.55;99675.63;5190230;28;20415;-43
2022/01/04 05:37:11;;;;;;;31.27;7.88;;;;;;;10.69;67.53;99674.81;5191986;28;20445;-43
2022/01/04 05:39:45;;;;;;;23.23;6.40;;;;;;;10.66;67.57;99670.72;5194024;28;20479;-42
2022/01/04 05:46:04;;;;;;;29.30;7.15;;;;;;;10.64;67.73;99682.44;5190558;28;20895;-46
2022/01/04 05:48:36;;;;;;;25.30;7.88;;;;;;;10.64;67.58;99671.88;5202685;28;20413;-44
2022/01/04 05:51:08;;;;;;;21.38;6.65;;;;;;;10.66;67.81;99667.25;5193533;28;20914;-44
2022/01/04 05:53:41;;;;;;;28.73;8.32;;;;;;;10.65;67.61;99657.66;5188507;28;20407;-43
2022/01/04 05:56:14;;;;;;;38.03;10.23;;;;;;;10.64;67.48;99656.84;5188900;28;20515;-43
2022/01/04 05:58:47;;;;;;;27.25;8.05;;;;;;;10.66;67.48;99660.16;5199211;28;20441;-43
2022/01/04 06:01:19;;;;;;;31.02;8.63;;;;;;;10.70;67.38;99669.34;5204753;28;20413;-44
2022/01/04 06:03:51;;;;;;;31.63;9.15;;;;;;;10.74;67.48;99664.53;5195278;28;20411;-43
2022/01/04 06:06:24;;;;;;;34.42;9.95;;;;;;;10.73;67.39;99657.59;5198204;28;20410;-42
2022/01/04 06:08:56;;;;;;;28.83;8.93;;;;;;;10.71;67.63;99663.06;5188824;28;20422;-43
2022/01/04 06:11:43;;;;;;;34.70;7.88;;;;;;;10.70;67.51;99652.69;5191847;28;20399;-43
2022/01/04 06:17:08;;;;;;;38.42;9.55;;;;;;;10.69;67.49;99653.69;5205859;28;20512;-38
2022/01/04 06:19:41;;;;;;;39.72;9.77;;;;;;;10.69;67.74;99649.22;5205246;28;20421;-43
2022/01/04 06:22:13;;;;;;;26.75;8.48;;;;;;;10.68;67.40;99663.41;5199368;28;20405;-44
2022/01/04 06:24:46;;;;;;;34.83;9.02;;;;;;;10.71;67.29;99651.66;5194480;28;20854;-45
2022/01/04 06:27:20;;;;;;;30.50;7.93;;;;;;;10.72;67.37;99653.34;5197736;28;20794;-41
2022/01/04 06:29:52;;;;;;;47.07;8.90;;;;;;;10.75;67.41;99642.41;5200763;28;20909;-43
2022/01/04 06:32:25;;;;;;;40.33;9.70;;;;;;;10.75;67.22;99643.22;5197532;28;20427;-42
2022/01/04 06:34:57;;;;;;;43.97;9.23;;;;;;;10.75;67.30;99642.41;5193674;28;21099;-43
2022/01/04 06:37:30;;;;;;;41.65;9.48;;;;;;;10.72;67.19;99633.03;5185491;28;20889;-43
2022/01/04 06:40:02;;;;;;;45.30;9.80;;;;;;;10.76;67.30;99630.84;5197604;28;20486;-42
2022/01/04 06:42:36;;;;;;;38.28;9.63;;;;;;;10.67;67.30;99629.28;5202566;28;20422;-42
2022/01/04 06:45:11;;;;;;;50.25;9.52;;;;;;;10.76;67.28;99638.75;5188862;28;20423;-43
2022/01/04 06:47:43;;;;;;;33.22;9.68;;;;;;;10.72;67.35;99633.03;5207376;28;20427;-43
2022/01/04 06:50:18;;;;;;;32.97;9.35;;;;;;;10.70;67.37;99623.63;5217830;28;20500;-43
2022/01/04 06:52:51;;;;;;;35.35;8.55;;;;;;;10.70;67.37;99624.44;5187138;28;20439;-46
2022/01/04 06:55:23;;;;;;;37.85;9.48;;;;;;;10.67;67.25;99616.06;5195484;28;20418;-43
2022/01/04 06:57:57;;;;;;;46.42;10.35;;;;;;;10.67;67.30;99611.59;5197352;28;20436;-43
2022/01/04 07:00:29;;;;;;;33.80;8.77;;;;;;;10.70;67.38;99613.06;5206026;28;20891;-45
2022/01/04 07:03:01;;;;;;;41.13;9.98;;;;;;;10.69;67.29;99606.16;5201493;28;20421;-43
2022/01/04 07:05:35;;;;;;;37.95;10.52;;;;;;;10.69;67.39;99606.97;5196205;28;20409;-45
2022/01/04 07:08:07;;;;;;;41.72;10.45;;;;;;;10.72;67.34;99605.81;5200227;28;20451;-44
2022/01/04 07:10:39;;;;;;;47.92;10.88;;;;;;;10.75;67.36;99611.53;5193214;28;20498;-43
2022/01/04 07:13:13;;;;;;;42.33;9.43;;;;;;;10.77;67.28;99613.97;5190741;28;20417;-45
2022/01/04 07:15:46;;;;;;;31.65;9.05;;;;;;;10.82;67.18;99603.72;5189955;28;20525;-44
2022/01/04 07:18:18;;;;;;;49.83;9.45;;;;;;;10.81;67.26;99594.97;5184214;28;20465;-45
2022/01/04 07:20:50;;;;;;;35.80;10.20;;;;;;;10.84;67.18;99593.78;5193999;28;20426;-43
2022/01/04 07:23:23;;;;;;;37.33;8.90;;;;;;;10.84;67.13;99588.50;5185082;28;20427;-44
2022/01/04 07:25:56;;;;;;;45.45;10.20;;;;;;;10.84;67.13;99593.78;5197087;28;20434;-44
2022/01/04 07:28:31;;;;;;;32.42;8.63;;;;;;;10.83;67.15;99592.94;5200413;28;20427;-43
2022/01/04 07:31:03;;;;;;;36.92;9.13;;;;;;;10.86;67.23;99597.06;5190459;28;20418;-43
2022/01/04 07:33:36;;;;;;;36.38;8.27;;;;;;;10.87;67.23;99604.00;5193090;28;20440;-43
2022/01/04 07:36:09;;;;;;;42.08;10.15;;;;;;;10.87;67.14;99595.22;5194967;28;20399;-43
2022/01/04 07:38:41;;;;;;;32.25;8.48;;;;;;;10.78;67.17;99584.78;5200008;28;20439;-43
2022/01/04 07:41:14;;;;;;;32.47;7.72;;;;;;;10.88;67.15;99597.69;5202055;28;20422;-42
2022/01/04 07:43:47;;;;;;;31.60;7.90;;;;;;;10.87;67.07;99589.94;5203303;28;20432;-45
2022/01/04 07:46:20;;;;;;;35.30;8.93;;;;;;;10.87;67.12;99598.72;5196552;28;20415;-43
2022/01/04 07:48:53;;;;;;;41.50;8.30;;;;;;;10.85;67.24;99595.41;5196149;28;20780;-42
2022/01/04 07:51:25;;;;;;;40.65;8.07;;;;;;;10.83;67.25;99592.13;5193615;28;20892;-42
2022/01/04 07:53:57;;;;;;;40.17;7.68;;;;;;;10.79;67.13;99599.59;5199936;28;20414;-43
2022/01/04 07:56:30;;;;;;;33.10;6.82;;;;;;;10.78;67.23;99590.06;5187164;28;20409;-43
2022/01/04 07:59:03;;;;;;;34.53;6.85;;;;;;;10.78;67.19;99595.34;5192006;28;20745;-44
2022/01/04 08:01:36;;;;;;;32.10;6.82;;;;;;;10.78;67.14;99605.09;5197282;28;20940;-44
2022/01/04 08:04:08;;;;;;;36.08;7.07;;;;;;;10.75;67.15;99600.16;5188047;28;20810;-43
2022/01/04 08:06:40;;;;;;;42.05;7.07;;;;;;;10.76;67.05;99602.59;5191207;28;20410;-43
2022/01/04 08:09:13;;;;;;;36.45;7.55;;;;;;;10.76;67.12;99601.78;5195114;28;20460;-43
2022/01/04 08:11:45;;;;;;;40.92;6.50;;;;;;;10.75;67.11;99595.69;5191982;28;20430;-43
2022/01/04 08:14:19;;;;;;;35.05;7.60;;;;;;;10.73;67.09;99595.03;5189287;28;20443;-43
2022/01/04 08:16:53;;;;;;;34.38;5.95;;;;;;;10.72;67.21;99597.88;5187832;28;20435;-43
2022/01/04 08:19:25;;;;;;;29.55;6.70;;;;;;;10.69;67.20;99606.97;5194875;28;20798;-43
2022/01/04 08:21:57;;;;;;;36.95;6.70;;;;;;;10.68;67.02;99600.03;5188201;28;20413;-44
2022/01/04 08:24:30;;;;;;;31.63;6.97;;;;;;;10.59;67.17;99595.84;5190594;28;20447;-43
2022/01/04 08:27:02;;;;;;;41.63;7.93;;;;;;;10.66;67.17;99611.81;5189173;28;20431;-43
2022/01/04 08:29:36;;;;;;;37.00;6.37;;;;;;;10.53;67.13;99600.03;5194732;28;20434;-43
2022/01/04 08:32:09;;;;;;;33.30;7.57;;;;;;;10.63;67.17;99622.72;5181503;28;20407;-43
2022/01/04 08:34:41;;;;;;;36.83;7.93;;;;;;;10.61;67.02;99636.91;5186190;28;20447;-44
2022/01/04 08:37:14;;;;;;;27.93;5.33;;;;;;;10.27;67.02;99581.94;5191481;28;20794;-44
2022/01/04 08:39:46;;;;;;;40.08;7.13;;;;;;;10.62;67.18;99621.88;5189958;28;20445;-43
2022/01/04 08:42:22;;;;;;;32.90;6.93;;;;;;;10.62;67.09;99627.16;5182310;28;20923;-45
2022/01/04 08:44:55;;;;;;;31.95;7.75;;;;;;;10.61;67.06;99634.28;5181869;28;20438;-42
2022/01/04 08:47:28;;;;;;;32.75;7.38;;;;;;;10.60;67.11;99624.72;5190596;28;20419;-43
2022/01/04 08:50:00;;;;;;;33.35;7.32;;;;;;;10.60;67.12;99632.63;5183715;28;20888;-42
2022/01/04 08:52:32;;;;;;;30.92;6.35;;;;;;;10.55;67.06;99626.25;5190644;28;20458;-43
2022/01/04 08:55:06;;;;;;;29.60;6.97;;;;;;;10.58;66.89;99636.44;5188485;28;20555;-43
2022/01/04 08:57:39;;;;;;;33.88;7.85;;;;;;;10.57;67.09;99638.28;5179546;28;20456;-42
2022/01/04 09:00:14;;;;;;;31.50;7.85;;;;;;;10.57;66.97;99635.63;5186365;28;20444;-42
2022/01/04 09:02:47;;;;;;;23.35;6.22;;;;;;;10.56;67.03;99634.00;5198888;28;20443;-44
2022/01/04 09:05:19;;;;;;;25.17;6.47;;;;;;;10.53;67.03;99634.34;5194414;28;20448;-43
2022/01/04 09:07:51;;;;;;;32.33;7.20;;;;;;;10.55;67.04;99647.38;5196809;28;20536;-42
2022/01/04 09:10:24;;;;;;;25.97;6.37;;;;;;;10.57;66.93;99645.38;5194125;28;20907;-42
2022/01/04 09:13:01;;;;;;;37.30;6.40;;;;;;;10.54;66.98;99636.00;5184417;28;20419;-43
2022/01/04 09:15:56;;;;;;;30.90;5.95;;;;;;;10.54;66.95;99643.91;5193845;28;21165;-43
2022/01/04 09:21:21;;;;;;;32.95;6.15;;;;;;;10.54;66.87;99657.13;5199031;28;20904;-44
2022/01/04 09:23:55;;;;;;;30.45;6.82;;;;;;;10.43;66.84;99646.16;5187255;28;20788;-43
2022/01/04 09:26:28;;;;;;;26.65;6.57;;;;;;;10.55;66.79;99652.66;5204294;28;20405;-43
2022/01/04 09:29:01;;;;;;;29.23;7.07;;;;;;;10.57;66.88;99659.41;5202714;28;20910;-42
2022/01/04 09:31:35;;;;;;;24.15;6.05;;;;;;;10.57;66.79;99662.03;5198322;28;20420;-44
2022/01/04 09:34:07;;;;;;;13.35;4.55;;;;;;;10.53;66.80;99666.03;5184490;28;20418;-48
2022/01/04 09:36:40;;;;;;;16.08;4.40;;;;;;;10.52;66.81;99650.38;5196601;28;20413;-43
2022/01/04 09:39:17;;;;;;;16.53;3.57;;;;;;;10.51;66.95;99662.75;5187045;28;20429;-45
2022/01/04 09:41:50;;;;;;;14.18;3.67;;;;;;;10.52;66.86;99672.28;5180046;28;20427;-44
2022/01/04 09:44:25;;;;;;;11.30;3.28;;;;;;;10.54;66.87;99670.31;5187405;28;20429;-42
2022/01/04 09:47:02;;;;;;;8.73;3.15;;;;;;;10.53;66.78;99668.69;5186341;28;23976;-43
2022/01/04 09:49:34;;;;;;;14.98;3.13;;;;;;;10.53;66.99;99673.97;5193018;28;20442;-44
2022/01/04 09:52:09;;;;;;;14.43;3.53;;;;;;;10.53;66.82;99676.59;5186370;28;20401;-46
2022/01/04 09:54:42;;;;;;;8.65;2.58;;;;;;;10.48;66.79;99678.94;5188905;28;20415;-43
2022/01/04 09:57:16;;;;;;;10.48;3.05;;;;;;;10.44;66.69;99677.66;5196173;28;20897;-45
2022/01/04 09:59:50;;;;;;;8.23;2.40;;;;;;;10.36;66.83;99680.34;5196482;28;20423;-44
2022/01/04 10:02:30;;;;;;;8.80;2.45;;;;;;;10.30;66.75;99675.78;5198482;28;20425;-43
2022/01/04 10:05:20;;;;;;;10.10;2.83;;;;;;;10.28;66.97;99688.31;5187107;28;20430;-53
2022/01/04 10:08:03;;;;;;;14.38;3.40;;;;;;;10.26;66.68;99690.31;5188082;28;20421;-42
2022/01/04 10:10:38;;;;;;;10.38;3.20;;;;;;;10.23;66.65;99690.66;5194830;28;20486;-44
2022/01/04 10:13:15;;;;;;;10.98;2.80;;;;;;;10.16;66.77;99693.19;5188255;28;20414;-43
2022/01/04 10:15:50;;;;;;;9.33;3.70;;;;;;;10.11;66.70;99688.41;5192250;28;20453;-45
2022/01/04 10:18:28;;;;;;;8.52;3.40;;;;;;;10.09;66.75;99695.66;5185799;28;20435;-43
2022/01/04 10:21:14;;;;;;;7.40;3.42;;;;;;;10.12;66.75;99699.78;5189140;28;20424;-44
2022/01/04 10:23:51;;;;;;;6.05;2.30;;;;;;;10.02;66.78;99696.56;5186519;28;20496;-43
2022/01/04 10:26:35;;;;;;;12.05;2.65;;;;;;;9.98;66.76;99703.19;5189195;28;20443;-44
2022/01/04 10:29:20;;;;;;;5.57;2.75;;;;;;;9.90;66.79;99696.13;5193101;28;20418;-51
2022/01/04 10:31:53;;;;;;;11.65;3.40;;;;;;;9.83;66.79;99697.81;5194204;28;20504;-44
2022/01/04 10:34:45;;;;;;;7.07;2.97;;;;;;;9.83;66.57;99696.00;5190591;28;20413;-43
2022/01/04 10:37:38;;;;;;;5.85;3.20;;;;;;;9.79;66.60;99701.81;5190646;28;20420;-42
2022/01/04 10:40:12;;;;;;;9.05;3.28;;;;;;;9.78;66.61;99703.59;5195780;28;20417;-43
2022/01/04 10:42:45;;;;;;;6.03;3.13;;;;;;;9.73;66.81;99700.66;5192197;28;20417;-42
2022/01/04 10:45:30;;;;;;;8.52;2.58;;;;;;;9.69;66.55;99704.63;5197157;28;20409;-43
2022/01/04 10:48:13;;;;;;;6.32;3.20;;;;;;;9.68;66.49;99697.72;5195018;28;20480;-44
2022/01/04 10:50:50;;;;;;;11.63;3.47;;;;;;;9.73;66.52;99699.84;5202827;28;20419;-43
2022/01/04 10:53:29;;;;;;;6.13;2.70;;;;;;;9.73;66.41;99686.66;5196012;28;20500;-43
2022/01/04 10:56:04;;;;;;;7.97;2.88;;;;;;;9.81;66.47;99699.78;5200327;28;20876;-43
2022/01/04 10:58:40;;;;;;;7.90;2.38;;;;;;;9.80;66.44;99700.78;5192054;28;20408;-40
2022/01/04 11:01:15;;;;;;;4.50;2.10;;;;;;;9.84;66.29;99707.34;5196070;28;20423;-42
2022/01/04 11:03:51;;;;;;;11.98;2.15;;;;;;;9.57;66.46;99683.13;5197512;28;21015;-43
2022/01/04 11:06:29;;;;;;;7.13;2.00;;;;;;;9.74;66.54;99720.75;5193721;28;20436;-44
2022/01/04 11:09:01;;;;;;;6.75;2.00;;;;;;;9.68;66.53;99724.91;5197846;28;20535;-43
2022/01/04 11:11:34;;;;;;;7.03;2.03;;;;;;;9.62;66.77;99725.56;5195005;28;20536;-43
2022/01/04 11:14:08;;;;;;;6.88;1.80;;;;;;;9.57;66.48;99721.81;5185661;28;20845;-35
2022/01/04 11:16:42;;;;;;;8.02;2.20;;;;;;;9.47;66.48;99724.66;5197181;28;20441;-43
2022/01/04 11:19:15;;;;;;;10.38;2.40;;;;;;;9.14;66.37;99677.34;5207469;28;20512;-45
2022/01/04 11:21:50;;;;;;;7.85;2.28;;;;;;;9.54;66.34;99743.22;5197569;28;20419;-42
2022/01/04 11:24:25;;;;;;;11.87;2.50;;;;;;;9.45;66.27;99745.09;5181321;28;20481;-45
2022/01/04 11:27:00;;;;;;;16.63;2.70;;;;;;;9.46;66.32;99755.44;5192644;28;20418;-43
2022/01/04 11:29:39;;;;;;;9.63;2.70;;;;;;;9.33;66.34;99754.34;5191506;28;20894;-44
2022/01/04 11:32:17;;;;;;;10.77;2.50;;;;;;;9.40;66.35;99768.47;5200900;28;20934;-42
2022/01/04 11:35:00;;;;;;;13.23;2.88;;;;;;;9.38;66.28;99770.44;5188206;28;20427;-44
2022/01/04 11:37:35;;;;;;;13.13;2.70;;;;;;;9.26;66.21;99756.84;5182577;28;20891;-43
2022/01/04 11:40:25;;;;;;;12.20;3.17;;;;;;;9.40;66.03;99779.84;5188795;28;20414;-47
2022/01/04 11:42:57;;;;;;;10.85;2.60;;;;;;;9.38;66.05;99783.63;5192716;28;20492;-43
2022/01/04 11:45:44;;;;;;;6.60;2.20;;;;;;;9.36;65.98;99783.00;5201507;28;20405;-43
2022/01/04 11:48:32;;;;;;;17.05;2.72;;;;;;;9.31;66.07;99787.94;5198231;28;20915;-43
2022/01/04 11:51:06;;;;;;;12.60;3.42;;;;;;;9.26;66.19;99785.81;5194983;28;20800;-42
2022/01/04 11:53:40;;;;;;;14.35;2.95;;;;;;;9.30;66.05;99791.56;5201092;28;20473;-43
2022/01/04 11:56:13;;;;;;;8.70;2.00;;;;;;;9.23;66.19;99804.59;5185393;28;20426;-43
2022/01/04 11:58:49;;;;;;;7.00;2.55;;;;;;;9.18;66.09;99810.34;5191184;28;20447;-43
2022/01/04 12:01:27;;;;;;;10.13;2.43;;;;;;;9.20;66.07;99816.28;5194910;28;20413;-44
2022/01/04 12:03:59;;;;;;;8.80;2.58;;;;;;;9.21;65.93;99812.66;5191567;28;20945;-44
2022/01/04 12:06:41;;;;;;;6.82;2.13;;;;;;;9.22;65.85;99827.44;5184872;28;20779;-43